Time;durP1;ratioP1;P1;durP2;ratioP2;P2;SDS_P1;SDS_P2;PMS_P1;PMS_P2;Temp;Humidity;BMP_temperature;BMP_pressure;BME280_temperature;BME280_humidity;BME280_pressure;Samples;Min_cycle;Max_cycle;Signal;HPM_P1;HPM_P2
2023/04/29 00:00:11;;;;;;;29.53;23.77;;;;;;;;;;5015552;28;20205;-54
2023/04/29 00:02:37;;;;;;;29.60;24.03;;;;;;;;;;5015546;28;20218;-54
2023/04/29 00:05:04;;;;;;;33.47;25.10;;;;;;;;;;5015254;28;20671;-54
2023/04/29 00:07:31;;;;;;;35.07;25.30;;;;;;;;;;5015491;28;20209;-54
2023/04/29 00:09:57;;;;;;;30.43;24.40;;;;;;;;;;5015637;28;20275;-53
2023/04/29 00:12:23;;;;;;;32.27;25.17;;;;;;;;;;5015351;28;20197;-61
2023/04/29 00:14:50;;;;;;;29.73;23.43;;;;;;;;;;5015427;28;20239;-54
2023/04/29 00:17:17;;;;;;;32.10;24.90;;;;;;;;;;5015243;28;20213;-54
2023/04/29 00:19:43;;;;;;;32.23;25.77;;;;;;;;;;5015288;28;20239;-54
2023/04/29 00:22:09;;;;;;;32.70;25.37;;;;;;;;;;5015412;28;20222;-55
2023/04/29 00:24:35;;;;;;;30.63;24.77;;;;;;;;;;5015283;28;20263;-55
2023/04/29 00:27:01;;;;;;;28.90;24.53;;;;;;;;;;5015140;28;20201;-55
2023/04/29 00:29:27;;;;;;;26.37;22.70;;;;;;;;;;5014931;28;20232;-55
2023/04/29 00:31:54;;;;;;;24.63;21.53;;;;;;;;;;5015016;28;20252;-55
2023/04/29 00:34:21;;;;;;;26.30;23.10;;;;;;;;;;5015182;28;20205;-55
2023/04/29 00:36:47;;;;;;;25.10;22.40;;;;;;;;;;5015089;28;20216;-55
2023/04/29 00:39:13;;;;;;;30.10;24.87;;;;;;;;;;5015027;28;20526;-55
2023/04/29 00:41:39;;;;;;;29.53;25.07;;;;;;;;;;5014759;28;20208;-55
2023/04/29 00:44:06;;;;;;;27.03;24.10;;;;;;;;;;5014895;28;20288;-56
2023/04/29 00:46:32;;;;;;;25.87;23.07;;;;;;;;;;5014741;28;20206;-56
2023/04/29 00:49:00;;;;;;;27.63;24.63;;;;;;;;;;5014717;28;20208;-56
2023/04/29 00:51:27;;;;;;;27.23;24.60;;;;;;;;;;5014526;28;20244;-56
2023/04/29 00:53:53;;;;;;;30.27;27.10;;;;;;;;;;5014694;28;20207;-56
2023/04/29 00:56:20;;;;;;;27.57;24.93;;;;;;;;;;5014585;28;20241;-56
2023/04/29 00:58:49;;;;;;;25.13;22.70;;;;;;;;;;5014744;28;20229;-56
2023/04/29 01:01:15;;;;;;;28.20;25.33;;;;;;;;;;5014413;28;20197;-57
2023/04/29 01:03:41;;;;;;;24.53;22.23;;;;;;;;;;5013067;28;20725;-57
2023/04/29 01:06:13;;;;;;;25.33;22.73;;;;;;;;;;5014477;28;20335;-56
2023/04/29 01:08:43;;;;;;;27.07;24.27;;;;;;;;;;5014470;28;20228;-56
2023/04/29 01:11:11;;;;;;;27.80;25.00;;;;;;;;;;5014224;28;20264;-56
2023/04/29 01:13:42;;;;;;;28.43;25.33;;;;;;;;;;5014166;28;20612;-56
2023/04/29 01:16:11;;;;;;;34.33;27.57;;;;;;;;;;5014226;28;20200;-56
2023/04/29 01:18:40;;;;;;;30.40;26.93;;;;;;;;;;5014293;28;20623;-56
2023/04/29 01:21:06;;;;;;;29.77;25.67;;;;;;;;;;5014376;28;20202;-56
2023/04/29 01:23:34;;;;;;;32.20;27.70;;;;;;;;;;5013914;28;20225;-56
2023/04/29 01:26:00;;;;;;;30.47;24.53;;;;;;;;;;5013978;28;20698;-56
2023/04/29 01:28:31;;;;;;;27.90;24.90;;;;;;;;;;5013609;28;20264;-56
2023/04/29 01:31:00;;;;;;;23.90;21.57;;;;;;;;;;5013890;28;20241;-56
2023/04/29 01:33:29;;;;;;;24.47;22.00;;;;;;;;;;5013938;28;20201;-56
2023/04/29 01:36:00;;;;;;;24.77;22.27;;;;;;;;;;5013912;28;20209;-56
2023/04/29 01:38:30;;;;;;;23.77;21.33;;;;;;;;;;5013759;28;20201;-56
2023/04/29 01:41:04;;;;;;;23.20;20.93;;;;;;;;;;5013808;28;20434;-56
2023/04/29 01:43:32;;;;;;;23.73;21.53;;;;;;;;;;5013365;28;20225;-56
2023/04/29 01:45:59;;;;;;;24.77;22.37;;;;;;;;;;5013616;28;20252;-56
2023/04/29 01:48:25;;;;;;;24.17;21.77;;;;;;;;;;5013747;28;20201;-56
2023/04/29 01:50:51;;;;;;;25.93;23.27;;;;;;;;;;5013754;28;20197;-56
2023/04/29 01:53:17;;;;;;;24.17;21.80;;;;;;;;;;5013616;28;20228;-56
2023/04/29 01:55:43;;;;;;;24.50;22.20;;;;;;;;;;5013422;28;20251;-56
2023/04/29 01:58:11;;;;;;;23.43;21.23;;;;;;;;;;5013525;28;20198;-56
2023/04/29 02:00:37;;;;;;;24.77;22.43;;;;;;;;;;5013426;28;20255;-55
2023/04/29 02:03:04;;;;;;;23.10;20.80;;;;;;;;;;5013285;28;20759;-56
2023/04/29 02:05:32;;;;;;;22.93;20.63;;;;;;;;;;5013214;28;20239;-56
2023/04/29 02:07:58;;;;;;;23.87;21.47;;;;;;;;;;5013263;28;20197;-55
2023/04/29 02:10:24;;;;;;;26.13;23.60;;;;;;;;;;5013039;28;20232;-56
2023/04/29 02:12:50;;;;;;;24.50;22.00;;;;;;;;;;5013092;28;20660;-56
2023/04/29 02:15:18;;;;;;;24.80;22.33;;;;;;;;;;5012833;28;20211;-56
2023/04/29 02:17:45;;;;;;;27.23;24.33;;;;;;;;;;5012878;28;20210;-56
2023/04/29 02:20:12;;;;;;;27.33;24.47;;;;;;;;;;5013015;28;20251;-56
2023/04/29 02:22:38;;;;;;;30.67;27.53;;;;;;;;;;5012836;28;20222;-56
2023/04/29 02:25:05;;;;;;;33.90;30.30;;;;;;;;;;5012927;28;20293;-56
2023/04/29 02:27:31;;;;;;;36.77;31.87;;;;;;;;;;5012729;28;20227;-56
2023/04/29 02:29:57;;;;;;;34.57;30.87;;;;;;;;;;5012771;28;20197;-56
2023/04/29 02:32:25;;;;;;;34.03;30.33;;;;;;;;;;5012717;28;20603;-56
2023/04/29 02:34:51;;;;;;;37.70;33.27;;;;;;;;;;5012810;28;20209;-56
2023/04/29 02:37:17;;;;;;;36.23;32.27;;;;;;;;;;5012810;28;20207;-56
2023/04/29 02:39:43;;;;;;;38.57;34.07;;;;;;;;;;5012607;28;20209;-56
2023/04/29 02:42:09;;;;;;;41.37;34.63;;;;;;;;;;5012598;28;20221;-56
2023/04/29 02:44:35;;;;;;;37.23;33.10;;;;;;;;;;5012697;28;20208;-57
2023/04/29 02:47:01;;;;;;;43.57;36.27;;;;;;;;;;5012578;28;20193;-56
2023/04/29 02:49:28;;;;;;;44.50;37.70;;;;;;;;;;5012378;28;20212;-56
2023/04/29 02:51:55;;;;;;;50.00;40.37;;;;;;;;;;5012349;28;20660;-56
2023/04/29 02:54:21;;;;;;;47.73;38.17;;;;;;;;;;5012668;28;20587;-56
2023/04/29 02:56:47;;;;;;;48.77;39.33;;;;;;;;;;5012491;28;20205;-56
2023/04/29 02:59:13;;;;;;;49.60;38.97;;;;;;;;;;5012417;28;20211;-55
2023/04/29 03:01:39;;;;;;;45.33;37.30;;;;;;;;;;5012309;28;20276;-56
2023/04/29 03:04:05;;;;;;;47.73;38.13;;;;;;;;;;5012385;28;20221;-55
2023/04/29 03:06:33;;;;;;;40.53;36.17;;;;;;;;;;5012022;28;20241;-55
2023/04/29 03:08:58;;;;;;;41.83;36.40;;;;;;;;;;5012115;28;20648;-55
2023/04/29 03:11:24;;;;;;;44.43;38.33;;;;;;;;;;5012244;28;20229;-55
2023/04/29 03:13:51;;;;;;;47.43;38.27;;;;;;;;;;5012362;28;20224;-56
2023/04/29 03:16:17;;;;;;;42.97;38.27;;;;;;;;;;5011979;28;20698;-56
2023/04/29 03:18:43;;;;;;;44.47;38.20;;;;;;;;;;5011944;28;20767;-56
2023/04/29 03:21:09;;;;;;;45.20;37.37;;;;;;;;;;5012120;28;20663;-56
2023/04/29 03:23:38;;;;;;;44.30;38.50;;;;;;;;;;5011920;28;20229;-55
2023/04/29 03:26:04;;;;;;;44.60;37.27;;;;;;;;;;5011566;28;20197;-56
2023/04/29 03:28:30;;;;;;;41.07;36.00;;;;;;;;;;5011793;28;20197;-56
2023/04/29 03:30:57;;;;;;;43.53;36.87;;;;;;;;;;5011656;28;20208;-56
2023/04/29 03:33:23;;;;;;;40.77;36.10;;;;;;;;;;5011838;28;20205;-56
2023/04/29 03:35:49;;;;;;;42.50;36.87;;;;;;;;;;5011762;28;20197;-56
2023/04/29 03:38:15;;;;;;;40.13;35.80;;;;;;;;;;5011734;28;20293;-56
2023/04/29 03:40:44;;;;;;;40.80;36.40;;;;;;;;;;5011488;28;20198;-56
2023/04/29 03:43:11;;;;;;;39.03;33.90;;;;;;;;;;5011486;28;20665;-57
2023/04/29 03:45:37;;;;;;;36.17;32.20;;;;;;;;;;5011915;28;20209;-56
2023/04/29 03:48:03;;;;;;;30.77;27.57;;;;;;;;;;5011702;28;20255;-56
2023/04/29 03:50:29;;;;;;;31.63;28.27;;;;;;;;;;5011846;28;20208;-56
2023/04/29 03:52:56;;;;;;;32.43;29.03;;;;;;;;;;5011357;28;20201;-56
2023/04/29 03:55:22;;;;;;;31.50;28.17;;;;;;;;;;5011657;28;20201;-56
2023/04/29 03:57:50;;;;;;;25.50;22.73;;;;;;;;;;5011446;28;20665;-56
2023/04/29 04:00:16;;;;;;;30.40;27.17;;;;;;;;;;5011552;28;20202;-56
2023/04/29 04:02:42;;;;;;;28.23;25.23;;;;;;;;;;5011809;28;20603;-56
2023/04/29 04:05:09;;;;;;;28.87;25.87;;;;;;;;;;5011421;28;20309;-56
2023/04/29 04:07:35;;;;;;;27.73;24.83;;;;;;;;;;5011899;28;20206;-56
2023/04/29 04:10:01;;;;;;;27.13;24.33;;;;;;;;;;5011502;28;20201;-56
2023/04/29 04:12:27;;;;;;;27.40;24.43;;;;;;;;;;5011250;28;20545;-56
2023/04/29 04:14:54;;;;;;;29.23;24.50;;;;;;;;;;5011308;28;20280;-56
2023/04/29 04:17:20;;;;;;;27.77;23.60;;;;;;;;;;5011579;28;20224;-56
2023/04/29 04:19:46;;;;;;;24.40;21.97;;;;;;;;;;5011311;28;20271;-56
2023/04/29 04:22:12;;;;;;;23.50;21.10;;;;;;;;;;5011305;28;20308;-56
2023/04/29 04:24:38;;;;;;;23.77;21.00;;;;;;;;;;5011384;28;20568;-56
2023/04/29 04:27:04;;;;;;;21.53;19.23;;;;;;;;;;5011252;28;20252;-56
2023/04/29 04:29:30;;;;;;;23.97;21.30;;;;;;;;;;5011239;28;20193;-56
2023/04/29 04:31:57;;;;;;;22.83;20.43;;;;;;;;;;5011052;28;20663;-56
2023/04/29 04:34:25;;;;;;;24.53;20.87;;;;;;;;;;5011261;28;20198;-57
2023/04/29 04:36:51;;;;;;;22.77;20.33;;;;;;;;;;5011991;28;20194;-56
2023/04/29 04:39:17;;;;;;;23.27;20.70;;;;;;;;;;5015047;28;20205;-56
2023/04/29 04:41:43;;;;;;;22.27;19.90;;;;;;;;;;5014610;28;20742;-56
2023/04/29 04:44:09;;;;;;;21.90;19.60;;;;;;;;;;5014803;28;20229;-56
2023/04/29 04:46:36;;;;;;;22.40;20.10;;;;;;;;;;5014862;28;20656;-56
2023/04/29 04:49:03;;;;;;;22.43;19.53;;;;;;;;;;5014688;28;20201;-56
2023/04/29 04:51:29;;;;;;;21.40;19.20;;;;;;;;;;5014687;28;20209;-56
2023/04/29 04:53:55;;;;;;;22.97;20.47;;;;;;;;;;5014486;28;20194;-56
2023/04/29 04:56:21;;;;;;;21.50;19.30;;;;;;;;;;5014775;28;20723;-56
2023/04/29 04:58:47;;;;;;;21.33;19.13;;;;;;;;;;5014471;28;20557;-56
2023/04/29 05:01:13;;;;;;;23.20;20.67;;;;;;;;;;5014635;28;20204;-56
2023/04/29 05:03:39;;;;;;;22.63;20.20;;;;;;;;;;5014411;28;20263;-56
2023/04/29 05:06:07;;;;;;;23.67;21.23;;;;;;;;;;5014367;28;20963;-56
2023/04/29 05:08:33;;;;;;;22.03;19.83;;;;;;;;;;5014393;28;20206;-56
2023/04/29 05:10:59;;;;;;;21.70;18.43;;;;;;;;;;5014139;28;20544;-56
2023/04/29 05:13:25;;;;;;;21.47;19.27;;;;;;;;;;5014279;28;20569;-56
2023/04/29 05:15:51;;;;;;;20.40;18.27;;;;;;;;;;5014262;28;20225;-56
2023/04/29 05:18:17;;;;;;;20.07;18.07;;;;;;;;;;5014243;28;20197;-56
2023/04/29 05:20:43;;;;;;;21.60;19.37;;;;;;;;;;5014010;28;20576;-56
2023/04/29 05:23:10;;;;;;;20.60;18.40;;;;;;;;;;5014125;28;20261;-56
2023/04/29 05:25:36;;;;;;;19.80;17.80;;;;;;;;;;5014320;28;20212;-56
2023/04/29 05:28:03;;;;;;;19.07;17.17;;;;;;;;;;5013843;28;20205;-56
2023/04/29 05:30:29;;;;;;;20.63;18.43;;;;;;;;;;5014016;28;20194;-57
2023/04/29 05:32:55;;;;;;;19.03;17.13;;;;;;;;;;5013748;28;20204;-55
2023/04/29 05:35:21;;;;;;;19.53;17.53;;;;;;;;;;5014004;28;20202;-56
2023/04/29 05:37:47;;;;;;;18.70;16.73;;;;;;;;;;5013833;28;20205;-56
2023/04/29 05:40:15;;;;;;;18.63;16.63;;;;;;;;;;5013717;28;20198;-57
2023/04/29 05:42:41;;;;;;;19.50;17.60;;;;;;;;;;5013611;28;20252;-57
2023/04/29 05:45:08;;;;;;;21.17;18.23;;;;;;;;;;5013696;28;20275;-56
2023/04/29 05:47:34;;;;;;;21.43;17.70;;;;;;;;;;5013814;28;20194;-56
2023/04/29 05:50:00;;;;;;;17.63;15.93;;;;;;;;;;5012918;28;20193;-56
2023/04/29 05:52:26;;;;;;;18.07;16.10;;;;;;;;;;5013419;28;20565;-56
2023/04/29 05:54:52;;;;;;;19.67;17.50;;;;;;;;;;5013661;28;20202;-56
2023/04/29 05:57:19;;;;;;;21.37;16.80;;;;;;;;;;5013594;28;20205;-56
2023/04/29 05:59:45;;;;;;;18.00;15.97;;;;;;;;;;5013245;28;20234;-56
2023/04/29 06:02:11;;;;;;;18.03;16.33;;;;;;;;;;5013208;28;20233;-56
2023/04/29 06:04:39;;;;;;;17.50;15.77;;;;;;;;;;5013335;28;20221;-57
2023/04/29 06:07:07;;;;;;;17.93;16.13;;;;;;;;;;5013228;28;20317;-57
2023/04/29 06:09:34;;;;;;;19.37;17.33;;;;;;;;;;5013271;28;20263;-56
2023/04/29 06:12:00;;;;;;;17.47;15.57;;;;;;;;;;5013221;28;20194;-55
2023/04/29 06:14:27;;;;;;;17.83;16.03;;;;;;;;;;5013127;28;20202;-58
2023/04/29 06:16:53;;;;;;;17.70;15.70;;;;;;;;;;5012938;28;20209;-56
2023/04/29 06:19:19;;;;;;;18.30;16.27;;;;;;;;;;5013251;28;20217;-57
2023/04/29 06:21:45;;;;;;;17.27;15.50;;;;;;;;;;5012854;28;20232;-56
2023/04/29 06:24:11;;;;;;;21.40;16.70;;;;;;;;;;5022977;28;20264;-57
2023/04/29 06:26:37;;;;;;;17.07;15.17;;;;;;;;;;5032702;28;20230;-57
2023/04/29 06:29:03;;;;;;;16.80;15.07;;;;;;;;;;5032657;28;20737;-57
2023/04/29 06:31:31;;;;;;;16.13;14.53;;;;;;;;;;5032703;28;20205;-57
2023/04/29 06:33:57;;;;;;;16.63;14.77;;;;;;;;;;5032700;28;20216;-56
2023/04/29 06:36:23;;;;;;;15.60;14.00;;;;;;;;;;5032672;28;20228;-57
2023/04/29 06:38:49;;;;;;;14.93;13.43;;;;;;;;;;5032474;28;20207;-57
2023/04/29 06:41:15;;;;;;;13.50;12.17;;;;;;;;;;5032262;28;20738;-57
2023/04/29 06:43:42;;;;;;;14.13;12.80;;;;;;;;;;5031975;28;20331;-56
2023/04/29 06:46:08;;;;;;;14.13;12.77;;;;;;;;;;5032255;28;20254;-57
2023/04/29 06:48:35;;;;;;;12.67;11.43;;;;;;;;;;5032294;28;20197;-56
2023/04/29 06:51:01;;;;;;;12.60;11.30;;;;;;;;;;5032124;28;20209;-56
2023/04/29 06:53:27;;;;;;;13.67;12.00;;;;;;;;;;5032066;28;20220;-58
2023/04/29 06:55:53;;;;;;;13.57;11.90;;;;;;;;;;5032144;28;20204;-56
2023/04/29 06:58:19;;;;;;;12.80;11.50;;;;;;;;;;5014439;28;20251;-59
2023/04/29 07:00:46;;;;;;;12.83;11.07;;;;;;;;;;5031327;28;20201;-57
2023/04/29 07:03:12;;;;;;;13.87;11.80;;;;;;;;;;5031739;28;20236;-56
2023/04/29 07:05:40;;;;;;;12.57;11.37;;;;;;;;;;5031827;28;20335;-56
2023/04/29 07:08:07;;;;;;;12.47;11.27;;;;;;;;;;5032126;28;20284;-56
2023/04/29 07:10:33;;;;;;;13.37;11.63;;;;;;;;;;5031976;28;20204;-58
2023/04/29 07:12:59;;;;;;;13.00;11.67;;;;;;;;;;5031837;28;20201;-57
2023/04/29 07:15:26;;;;;;;13.60;12.17;;;;;;;;;;5031791;28;20681;-56
2023/04/29 07:17:52;;;;;;;14.43;12.47;;;;;;;;;;5031889;28;20193;-56
2023/04/29 07:20:18;;;;;;;13.70;12.40;;;;;;;;;;5031928;28;20254;-56
2023/04/29 07:22:45;;;;;;;14.77;12.53;;;;;;;;;;5031686;28;20577;-56
2023/04/29 07:25:11;;;;;;;14.23;12.83;;;;;;;;;;5031488;28;20205;-57
2023/04/29 07:27:37;;;;;;;13.93;12.53;;;;;;;;;;5031643;28;20209;-56
2023/04/29 07:30:04;;;;;;;13.70;12.27;;;;;;;;;;5031428;28;20200;-56
2023/04/29 07:32:31;;;;;;;13.13;11.70;;;;;;;;;;5031621;28;20220;-61
2023/04/29 07:34:57;;;;;;;14.10;12.70;;;;;;;;;;5031465;28;20748;-57
2023/04/29 07:37:23;;;;;;;14.10;12.60;;;;;;;;;;5031571;28;20196;-56
2023/04/29 07:39:50;;;;;;;15.23;13.63;;;;;;;;;;5031654;28;20196;-56
2023/04/29 07:42:16;;;;;;;13.90;12.47;;;;;;;;;;5031527;28;20201;-57
2023/04/29 07:44:44;;;;;;;12.83;11.60;;;;;;;;;;5031590;28;20625;-57
2023/04/29 07:47:10;;;;;;;12.90;11.50;;;;;;;;;;5031345;28;20208;-57
2023/04/29 07:49:36;;;;;;;11.90;10.70;;;;;;;;;;5031833;28;20279;-58
2023/04/29 07:52:02;;;;;;;11.90;10.67;;;;;;;;;;5031303;28;20666;-57
2023/04/29 07:54:28;;;;;;;12.77;11.57;;;;;;;;;;5031316;28;20200;-57
2023/04/29 07:56:57;;;;;;;12.30;11.03;;;;;;;;;;5031182;28;20193;-57
2023/04/29 07:59:23;;;;;;;11.83;10.63;;;;;;;;;;5031302;28;20662;-57
2023/04/29 08:01:49;;;;;;;15.13;11.83;;;;;;;;;;5031732;28;20208;-57
2023/04/29 08:04:15;;;;;;;12.60;11.33;;;;;;;;;;5031029;28;20275;-56
2023/04/29 08:06:41;;;;;;;12.50;11.20;;;;;;;;;;5031026;28;20236;-56
2023/04/29 08:09:07;;;;;;;14.80;13.20;;;;;;;;;;5031101;28;20603;-57
2023/04/29 08:11:33;;;;;;;13.13;11.93;;;;;;;;;;5031353;28;20201;-56
2023/04/29 08:14:00;;;;;;;13.60;12.23;;;;;;;;;;5035147;28;20204;-56
2023/04/29 08:16:26;;;;;;;14.00;12.50;;;;;;;;;;5034938;28;20689;-56
2023/04/29 08:18:53;;;;;;;15.47;13.83;;;;;;;;;;5035186;28;20215;-56
2023/04/29 08:21:19;;;;;;;14.53;13.10;;;;;;;;;;5035255;28;20270;-56
2023/04/29 08:23:45;;;;;;;16.03;14.53;;;;;;;;;;5034889;28;20294;-55
2023/04/29 08:26:14;;;;;;;17.03;15.43;;;;;;;;;;5034796;28;20205;-57
2023/04/29 08:28:40;;;;;;;19.90;17.77;;;;;;;;;;5034830;28;20205;-55
2023/04/29 08:31:09;;;;;;;18.27;16.53;;;;;;;;;;5034888;28;20201;-55
2023/04/29 08:33:35;;;;;;;20.83;18.70;;;;;;;;;;5035022;28;20197;-56
2023/04/29 08:36:02;;;;;;;19.73;17.83;;;;;;;;;;5034875;28;20205;-56
2023/04/29 08:38:29;;;;;;;19.93;17.93;;;;;;;;;;5034679;28;20189;-56
2023/04/29 08:40:55;;;;;;;20.30;18.30;;;;;;;;;;5034642;28;20646;-55
2023/04/29 08:43:21;;;;;;;20.07;17.97;;;;;;;;;;5034786;28;20244;-56
2023/04/29 08:45:48;;;;;;;18.17;16.43;;;;;;;;;;5034560;28;20599;-58
2023/04/29 08:48:15;;;;;;;20.70;18.40;;;;;;;;;;5034459;28;20512;-60
2023/04/29 08:50:42;;;;;;;17.40;15.70;;;;;;;;;;5034556;28;20208;-59
2023/04/29 08:53:08;;;;;;;17.13;15.33;;;;;;;;;;5034466;28;20197;-56
2023/04/29 08:55:35;;;;;;;18.30;16.60;;;;;;;;;;5034571;28;20193;-57
2023/04/29 08:58:01;;;;;;;17.43;15.70;;;;;;;;;;5034205;28;20200;-56
2023/04/29 09:00:27;;;;;;;19.63;17.60;;;;;;;;;;5034333;28;20206;-57
2023/04/29 09:02:55;;;;;;;19.53;17.37;;;;;;;;;;5034215;28;20220;-58
2023/04/29 09:05:24;;;;;;;18.17;16.10;;;;;;;;;;5034043;28;20236;-57
2023/04/29 09:07:51;;;;;;;18.00;16.13;;;;;;;;;;5032650;28;20232;-57
2023/04/29 09:10:17;;;;;;;17.17;15.60;;;;;;;;;;5034580;28;20232;-57
2023/04/29 09:12:44;;;;;;;19.27;14.77;;;;;;;;;;5034459;28;20193;-57
2023/04/29 09:15:11;;;;;;;14.67;13.13;;;;;;;;;;5034245;28;20280;-57
2023/04/29 09:17:40;;;;;;;13.70;12.47;;;;;;;;;;5034208;28;20216;-57
2023/04/29 09:20:21;;;;;;;13.13;11.70;;;;;;;;;;5032216;28;20200;-57
2023/04/29 09:22:49;;;;;;;11.83;10.30;;;;;;;;;;5030530;28;20304;-57
2023/04/29 09:25:15;;;;;;;10.30;9.23;;;;;;;;;;5032773;28;20209;-57
2023/04/29 09:27:42;;;;;;;8.87;7.97;;;;;;;;;;5033713;28;20311;-57
2023/04/29 09:30:08;;;;;;;11.33;8.60;;;;;;;;;;5033534;28;20643;-59
2023/04/29 09:32:35;;;;;;;12.00;8.97;;;;;;;;;;5033603;28;20288;-57
2023/04/29 09:35:21;;;;;;;8.90;7.83;;;;;;;;;;5033484;28;20610;-58
2023/04/29 09:37:47;;;;;;;10.67;7.93;;;;;;;;;;5033703;28;20297;-58
2023/04/29 09:40:29;;;;;;;9.07;7.93;;;;;;;;;;5033384;28;20209;-58
2023/04/29 09:42:55;;;;;;;6.87;6.20;;;;;;;;;;5033297;28;20226;-58
2023/04/29 09:45:32;;;;;;;9.47;6.57;;;;;;;;;;5033402;28;20658;-58
2023/04/29 09:48:01;;;;;;;7.57;6.17;;;;;;;;;;5033237;28;20199;-58
2023/04/29 09:50:28;;;;;;;8.90;5.87;;;;;;;;;;5033337;28;20213;-58
2023/04/29 09:52:54;;;;;;;6.83;5.83;;;;;;;;;;5033687;28;20203;-58
2023/04/29 09:55:22;;;;;;;8.03;6.30;;;;;;;;;;5033203;28;20226;-58
2023/04/29 09:57:48;;;;;;;6.90;5.60;;;;;;;;;;5033214;28;20206;-58
2023/04/29 10:00:14;;;;;;;5.93;5.33;;;;;;;;;;5032903;28;20201;-59
2023/04/29 10:02:41;;;;;;;7.57;5.67;;;;;;;;;;5032723;28;20228;-60
2023/04/29 10:05:09;;;;;;;6.63;5.33;;;;;;;;;;5032805;28;20231;-60
2023/04/29 10:07:38;;;;;;;6.43;5.33;;;;;;;;;;5033007;28;20295;-57
2023/04/29 10:10:06;;;;;;;6.73;5.57;;;;;;;;;;5033064;28;20200;-58
2023/04/29 10:12:34;;;;;;;5.83;5.23;;;;;;;;;;5032716;28;20205;-57
2023/04/29 10:15:03;;;;;;;8.10;5.63;;;;;;;;;;5032901;28;20328;-59
2023/04/29 10:17:32;;;;;;;6.77;5.10;;;;;;;;;;5032658;28;20627;-57
2023/04/29 10:20:04;;;;;;;7.03;5.80;;;;;;;;;;5032756;28;20239;-57
2023/04/29 10:22:33;;;;;;;6.93;6.00;;;;;;;;;;5032656;28;20559;-58
2023/04/29 10:25:01;;;;;;;6.37;5.13;;;;;;;;;;5032641;28;20204;-58
2023/04/29 10:27:27;;;;;;;6.90;5.30;;;;;;;;;;5032297;28;20685;-57
2023/04/29 10:29:56;;;;;;;6.73;6.00;;;;;;;;;;5032677;28;20682;-58
2023/04/29 10:32:22;;;;;;;6.90;6.00;;;;;;;;;;5032317;28;20208;-58
2023/04/29 10:34:49;;;;;;;7.17;5.57;;;;;;;;;;5032306;28;20641;-58
2023/04/29 10:37:16;;;;;;;6.50;5.77;;;;;;;;;;5032417;28;20197;-58
2023/04/29 10:39:46;;;;;;;8.07;6.03;;;;;;;;;;5032506;28;20205;-58
2023/04/29 10:42:16;;;;;;;9.17;6.20;;;;;;;;;;5032068;28;20274;-58
2023/04/29 10:44:57;;;;;;;9.53;6.10;;;;;;;;;;5031975;28;20232;-58
2023/04/29 10:47:25;;;;;;;7.27;5.93;;;;;;;;;;5031177;28;20681;-58
2023/04/29 10:50:04;;;;;;;6.53;5.20;;;;;;;;;;5028440;28;20215;-58
2023/04/29 10:52:30;;;;;;;8.07;5.80;;;;;;;;;;5031348;28;20212;-58
2023/04/29 10:55:03;;;;;;;6.63;5.10;;;;;;;;;;5031837;28;20261;-58
2023/04/29 10:57:29;;;;;;;5.67;4.37;;;;;;;;;;5031764;28;20208;-58
2023/04/29 10:59:55;;;;;;;6.73;4.57;;;;;;;;;;5032087;28;20204;-58
2023/04/29 11:02:22;;;;;;;6.47;4.37;;;;;;;;;;5031964;28;20208;-58
2023/04/29 11:05:08;;;;;;;6.63;4.77;;;;;;;;;;5032048;28;20291;-58
2023/04/29 11:07:34;;;;;;;6.43;4.83;;;;;;;;;;5032082;28;20208;-59
2023/04/29 11:10:01;;;;;;;5.90;4.73;;;;;;;;;;5031847;28;20682;-58
2023/04/29 11:12:28;;;;;;;7.93;4.90;;;;;;;;;;5031797;28;20198;-58
2023/04/29 11:15:00;;;;;;;5.57;4.50;;;;;;;;;;5031934;28;20247;-58
2023/04/29 11:17:26;;;;;;;5.40;3.90;;;;;;;;;;5032016;28;20250;-58
2023/04/29 11:19:54;;;;;;;4.90;3.90;;;;;;;;;;5032023;28;20193;-58
2023/04/29 11:22:29;;;;;;;6.30;4.83;;;;;;;;;;5031771;28;20207;-58
2023/04/29 11:24:56;;;;;;;6.37;4.50;;;;;;;;;;5031682;28;20228;-58
2023/04/29 11:27:26;;;;;;;5.20;4.70;;;;;;;;;;5031610;28;20295;-57
2023/04/29 11:30:00;;;;;;;6.83;4.50;;;;;;;;;;5031594;28;20205;-58
2023/04/29 11:32:26;;;;;;;5.17;3.90;;;;;;;;;;5031659;28;20221;-58
2023/04/29 11:34:53;;;;;;;6.40;4.50;;;;;;;;;;5031668;28;20251;-58
2023/04/29 11:37:20;;;;;;;5.57;4.47;;;;;;;;;;5031441;28;20247;-58
2023/04/29 11:39:47;;;;;;;6.47;4.50;;;;;;;;;;5031530;28;20192;-58
2023/04/29 11:42:13;;;;;;;7.47;5.33;;;;;;;;;;5031256;28;20205;-58
2023/04/29 11:44:39;;;;;;;7.53;5.40;;;;;;;;;;5031222;28;20751;-58
2023/04/29 11:47:06;;;;;;;6.87;4.90;;;;;;;;;;5030951;28;20232;-58
2023/04/29 11:49:32;;;;;;;5.10;4.20;;;;;;;;;;5031100;28;20257;-58
2023/04/29 11:51:58;;;;;;;4.63;4.23;;;;;;;;;;5031394;28;20207;-58
2023/04/29 11:54:25;;;;;;;5.60;4.17;;;;;;;;;;5031229;28;20230;-58
2023/04/29 11:56:57;;;;;;;6.60;4.57;;;;;;;;;;5031326;28;20239;-58
2023/04/29 11:59:23;;;;;;;5.50;4.40;;;;;;;;;;5031092;28;20657;-57
2023/04/29 12:01:49;;;;;;;4.73;4.00;;;;;;;;;;5031400;28;20211;-57
2023/04/29 12:04:15;;;;;;;7.17;4.70;;;;;;;;;;5030988;28;20238;-57
2023/04/29 12:06:41;;;;;;;4.87;4.40;;;;;;;;;;5031059;28;20322;-57
2023/04/29 12:09:07;;;;;;;5.17;4.73;;;;;;;;;;5031249;28;20231;-57
2023/04/29 12:11:34;;;;;;;5.80;5.20;;;;;;;;;;5031365;28;20233;-58
2023/04/29 12:14:04;;;;;;;5.40;4.90;;;;;;;;;;5031351;28;20214;-58
2023/04/29 12:16:31;;;;;;;7.23;5.47;;;;;;;;;;5030926;28;20207;-58
2023/04/29 12:18:57;;;;;;;6.37;4.83;;;;;;;;;;5031077;28;20206;-57
2023/04/29 12:21:23;;;;;;;7.23;5.10;;;;;;;;;;5031069;28;20203;-58
2023/04/29 12:23:50;;;;;;;6.37;4.70;;;;;;;;;;5031068;28;20239;-59
2023/04/29 12:26:18;;;;;;;7.00;5.20;;;;;;;;;;5030907;28;20194;-57
2023/04/29 12:28:45;;;;;;;6.87;5.50;;;;;;;;;;5031157;28;20230;-57
2023/04/29 12:31:14;;;;;;;6.50;5.17;;;;;;;;;;5031166;28;20202;-57
2023/04/29 12:33:45;;;;;;;5.57;4.90;;;;;;;;;;5031107;28;20233;-58
2023/04/29 12:36:17;;;;;;;10.00;5.60;;;;;;;;;;5031391;28;20646;-57
2023/04/29 12:38:43;;;;;;;5.73;5.03;;;;;;;;;;5030987;28;20197;-57
2023/04/29 12:41:09;;;;;;;6.60;5.87;;;;;;;;;;5030919;28;20280;-57
2023/04/29 12:43:36;;;;;;;6.50;5.90;;;;;;;;;;5030753;28;20726;-57
2023/04/29 12:46:03;;;;;;;7.90;5.93;;;;;;;;;;5030887;28;20196;-58
2023/04/29 12:48:31;;;;;;;5.93;4.87;;;;;;;;;;5031030;28;20921;-57
2023/04/29 12:50:58;;;;;;;7.63;5.80;;;;;;;;;;5030668;28;20259;-58
2023/04/29 12:53:25;;;;;;;7.10;5.23;;;;;;;;;;5030708;28;20200;-58
2023/04/29 12:55:51;;;;;;;7.03;5.10;;;;;;;;;;5030875;28;20251;-57
2023/04/29 12:58:17;;;;;;;6.73;4.83;;;;;;;;;;5030632;28;20212;-58
2023/04/29 13:00:43;;;;;;;5.17;4.60;;;;;;;;;;5034154;28;20201;-57
2023/04/29 13:03:09;;;;;;;4.83;4.30;;;;;;;;;;5033871;28;20231;-58
2023/04/29 13:05:37;;;;;;;4.73;4.00;;;;;;;;;;5034231;28;20271;-58
2023/04/29 13:08:07;;;;;;;5.33;4.30;;;;;;;;;;5034171;28;20201;-58
2023/04/29 13:10:33;;;;;;;6.13;4.67;;;;;;;;;;5034015;28;20208;-58
2023/04/29 13:12:59;;;;;;;4.63;4.10;;;;;;;;;;5034099;28;20930;-57
2023/04/29 13:15:25;;;;;;;5.03;3.60;;;;;;;;;;5033924;28;20572;-57
2023/04/29 13:17:51;;;;;;;4.17;3.40;;;;;;;;;;5034106;28;20750;-57
2023/04/29 13:20:17;;;;;;;4.83;3.47;;;;;;;;;;5033917;28;20288;-57
2023/04/29 13:22:45;;;;;;;4.30;3.17;;;;;;;;;;5033627;28;20201;-57
2023/04/29 13:25:11;;;;;;;4.00;3.20;;;;;;;;;;5033738;28;20733;-57
2023/04/29 13:27:37;;;;;;;5.97;4.10;;;;;;;;;;5033850;28;20194;-57
2023/04/29 13:30:03;;;;;;;5.03;4.10;;;;;;;;;;5034225;28;20198;-57
2023/04/29 13:32:29;;;;;;;3.97;3.57;;;;;;;;;;5033487;28;20262;-57
2023/04/29 13:34:55;;;;;;;4.17;3.77;;;;;;;;;;5033805;28;20556;-57
2023/04/29 13:37:21;;;;;;;5.37;3.60;;;;;;;;;;5034005;28;20651;-57
2023/04/29 13:39:49;;;;;;;4.27;3.87;;;;;;;;;;5033698;28;20254;-57
2023/04/29 13:42:15;;;;;;;4.57;3.73;;;;;;;;;;5033544;28;20205;-56
2023/04/29 13:44:44;;;;;;;4.30;3.13;;;;;;;;;;5033390;28;20264;-57
2023/04/29 13:47:11;;;;;;;3.77;3.40;;;;;;;;;;5033443;28;20198;-56
2023/04/29 13:49:37;;;;;;;4.70;3.40;;;;;;;;;;5033715;28;20252;-57
2023/04/29 13:52:03;;;;;;;4.07;3.70;;;;;;;;;;5033625;28;20201;-57
2023/04/29 13:54:29;;;;;;;4.33;3.93;;;;;;;;;;5033207;28;20207;-57
2023/04/29 13:56:56;;;;;;;5.53;3.50;;;;;;;;;;5033319;28;20229;-57
2023/04/29 13:59:22;;;;;;;3.70;3.30;;;;;;;;;;5033229;28;20707;-58
2023/04/29 14:01:49;;;;;;;4.10;3.47;;;;;;;;;;5033229;28;20229;-57
2023/04/29 14:04:16;;;;;;;6.73;3.47;;;;;;;;;;5032978;28;20822;-57
2023/04/29 14:06:43;;;;;;;4.33;3.37;;;;;;;;;;5032839;28;20365;-57
2023/04/29 14:09:09;;;;;;;5.17;3.00;;;;;;;;;;5033141;28;20607;-57
2023/04/29 14:11:35;;;;;;;3.27;2.97;;;;;;;;;;5032932;28;20210;-57
2023/04/29 14:14:02;;;;;;;5.83;3.60;;;;;;;;;;5033296;28;20613;-57
2023/04/29 14:16:28;;;;;;;3.57;3.23;;;;;;;;;;5032833;28;20204;-57
2023/04/29 14:18:55;;;;;;;5.60;3.17;;;;;;;;;;5032762;28;20306;-57
2023/04/29 14:21:21;;;;;;;3.47;2.80;;;;;;;;;;5032971;28;20204;-56
2023/04/29 14:23:47;;;;;;;4.43;3.10;;;;;;;;;;5032763;28;20273;-57